Time;durP1;ratioP1;P1;durP2;ratioP2;P2;SDS_P1;SDS_P2;PMS_P1;PMS_P2;Temp;Humidity;BMP_temperature;BMP_pressure;BME280_temperature;BME280_humidity;BME280_pressure;Samples;Min_cycle;Max_cycle;Signal;HPM_P1;HPM_P2
2023/01/07 00:01:03;;;;;;;17.75;13.27;;;10.70;99.90;;;;;;5091970;28;20036;-90
2023/01/07 00:03:29;;;;;;;16.75;11.20;;;10.80;99.90;;;;;;5076333;28;20561;-89
2023/01/07 00:06:03;;;;;;;16.33;10.90;;;10.80;99.90;;;;;;5093490;28;20378;-89
2023/01/07 00:08:30;;;;;;;17.25;11.05;;;10.80;99.90;;;;;;5085159;28;20401;-89
2023/01/07 00:10:59;;;;;;;15.27;10.48;;;10.80;99.90;;;;;;5076087;28;20672;-89
2023/01/07 00:13:25;;;;;;;16.45;11.32;;;10.80;99.90;;;;;;5088274;28;20035;-89
2023/01/07 00:15:51;;;;;;;17.60;10.88;;;10.80;99.90;;;;;;5056180;28;20040;-88
2023/01/07 00:18:16;;;;;;;16.88;11.68;;;10.80;99.90;;;;;;5073404;28;20489;-89
2023/01/07 00:20:42;;;;;;;16.25;11.40;;;10.80;99.90;;;;;;5094113;28;20031;-89
2023/01/07 00:23:07;;;;;;;17.88;12.05;;;10.90;99.90;;;;;;5096575;28;20619;-89
2023/01/07 00:25:33;;;;;;;14.93;10.57;;;10.90;99.90;;;;;;5095777;28;20496;-89
2023/01/07 00:27:58;;;;;;;17.33;11.60;;;10.90;99.90;;;;;;5079873;28;20039;-89
2023/01/07 00:30:24;;;;;;;17.75;12.52;;;10.90;99.90;;;;;;5095305;28;20405;-89
2023/01/07 00:32:58;;;;;;;17.27;11.80;;;10.90;99.90;;;;;;5090198;28;20032;-89
2023/01/07 00:35:24;;;;;;;16.90;11.07;;;10.90;99.90;;;;;;5059854;28;20036;-88
2023/01/07 00:37:51;;;;;;;18.00;12.00;;;11.00;99.90;;;;;;5076621;28;20028;-89
2023/01/07 00:40:17;;;;;;;17.88;11.43;;;11.00;99.90;;;;;;5067988;28;20028;-89
2023/01/07 00:42:53;;;;;;;17.48;12.57;;;11.00;99.90;;;;;;5091586;28;20079;-88
2023/01/07 00:45:19;;;;;;;18.00;12.25;;;11.00;99.90;;;;;;5080807;28;20035;-89
2023/01/07 00:47:44;;;;;;;17.92;13.07;;;11.00;99.90;;;;;;5084571;28;20097;-89
2023/01/07 00:50:10;;;;;;;16.90;11.73;;;11.00;99.90;;;;;;5080897;28;20040;-89
2023/01/07 00:52:35;;;;;;;16.13;12.30;;;11.00;99.90;;;;;;5058591;28;20477;-89
2023/01/07 00:55:01;;;;;;;18.98;13.25;;;11.00;99.90;;;;;;5089972;28;20040;-89
2023/01/07 00:57:26;;;;;;;19.65;13.43;;;11.00;99.90;;;;;;5067262;28;20511;-89
2023/01/07 00:59:52;;;;;;;18.60;13.27;;;11.00;99.90;;;;;;5070659;28;20027;-88
2023/01/07 01:02:17;;;;;;;26.88;24.48;;;11.00;99.90;;;;;;5068682;28;20467;-88
2023/01/07 01:04:43;;;;;;;18.10;12.60;;;11.10;99.90;;;;;;5061808;28;20115;-88
2023/01/07 01:07:08;;;;;;;18.52;12.68;;;11.10;99.90;;;;;;5066521;28;20255;-89
2023/01/07 01:09:34;;;;;;;18.70;11.98;;;11.10;99.90;;;;;;5066865;28;20493;-88
2023/01/07 01:12:00;;;;;;;15.98;11.32;;;11.10;99.90;;;;;;5081861;28;20386;-89
2023/01/07 01:14:25;;;;;;;19.05;12.75;;;11.10;99.90;;;;;;5066134;28;20031;-89
2023/01/07 01:16:51;;;;;;;17.13;12.55;;;11.10;99.90;;;;;;5089936;28;20045;-89
2023/01/07 01:19:16;;;;;;;18.10;12.70;;;11.10;99.90;;;;;;5075740;28;20496;-89
2023/01/07 01:21:42;;;;;;;17.73;12.57;;;11.10;99.90;;;;;;5085489;28;20405;-89
2023/01/07 01:24:08;;;;;;;18.52;11.38;;;11.10;99.90;;;;;;5081127;28;20404;-89
2023/01/07 01:26:33;;;;;;;18.00;12.27;;;11.10;99.90;;;;;;5058376;28;20040;-88
2023/01/07 01:28:59;;;;;;;16.65;11.57;;;11.10;99.90;;;;;;5074928;28;20055;-89
2023/01/07 01:31:24;;;;;;;17.27;11.80;;;11.10;99.90;;;;;;5078153;28;20459;-88
2023/01/07 01:33:54;;;;;;;16.95;11.57;;;11.10;99.90;;;;;;5077327;28;20055;-89
2023/01/07 01:36:20;;;;;;;17.63;12.18;;;11.10;99.90;;;;;;5078539;28;20569;-89
2023/01/07 01:38:46;;;;;;;18.17;12.10;;;11.10;99.90;;;;;;5095687;28;20039;-89
2023/01/07 01:41:18;;;;;;;19.05;12.25;;;11.10;99.90;;;;;;5094093;28;20040;-89
2023/01/07 01:43:44;;;;;;;17.67;11.55;;;11.10;99.90;;;;;;5095257;28;20079;-89
2023/01/07 01:46:21;;;;;;;16.63;12.00;;;11.10;99.90;;;;;;5077295;28;20067;-89
2023/01/07 01:48:55;;;;;;;16.45;10.90;;;11.10;99.90;;;;;;5078461;28;20130;-89
2023/01/07 01:51:24;;;;;;;19.67;12.82;;;11.10;99.90;;;;;;5094539;28;20467;-89
2023/01/07 01:53:52;;;;;;;20.05;11.88;;;11.10;99.90;;;;;;5093813;28;20054;-89
2023/01/07 01:56:24;;;;;;;17.58;12.05;;;11.10;99.90;;;;;;5078365;28;20040;-89
2023/01/07 01:59:01;;;;;;;18.25;11.10;;;11.10;99.90;;;;;;5077539;28;20031;-89
2023/01/07 02:01:27;;;;;;;16.13;10.70;;;11.10;99.90;;;;;;5078346;28;20028;-89
2023/01/07 02:03:53;;;;;;;26.30;23.50;;;11.10;99.90;;;;;;5093458;28;20046;-89
2023/01/07 02:06:25;;;;;;;18.15;12.57;;;11.10;99.90;;;;;;5078441;28;20040;-89
2023/01/07 02:08:51;;;;;;;16.52;10.30;;;11.10;99.90;;;;;;5077561;28;20503;-89
2023/01/07 02:11:35;;;;;;;18.20;11.75;;;11.10;99.90;;;;;;5094224;28;20118;-89
2023/01/07 02:14:22;;;;;;;16.10;10.73;;;11.10;99.90;;;;;;5077521;28;20082;-88
2023/01/07 02:17:09;;;;;;;17.50;11.27;;;11.10;99.90;;;;;;5093693;28;20039;-89
2023/01/07 02:20:09;;;;;;;15.90;10.60;;;11.10;99.90;;;;;;5077981;28;20039;-89
2023/01/07 02:23:10;;;;;;;15.10;10.48;;;11.10;99.90;;;;;;5008822;28;20047;-89
2023/01/07 02:25:40;;;;;;;15.30;10.45;;;11.00;99.90;;;;;;5094605;28;20511;-89
2023/01/07 02:28:28;;;;;;;17.00;11.30;;;11.00;99.90;;;;;;5077586;28;20039;-89
2023/01/07 02:31:24;;;;;;;16.73;11.60;;;11.10;99.90;;;;;;5076735;28;20111;-89
2023/01/07 02:34:11;;;;;;;18.27;10.70;;;11.10;99.90;;;;;;5076572;28;20048;-89
2023/01/07 02:36:55;;;;;;;16.63;10.10;;;11.10;99.90;;;;;;5057339;28;20055;-88
2023/01/07 02:39:42;;;;;;;15.68;10.10;;;11.10;99.90;;;;;;5057488;28;20036;-89
2023/01/07 02:42:47;;;;;;;16.25;10.40;;;11.10;99.90;;;;;;5074805;28;20035;-89
2023/01/07 02:45:30;;;;;;;16.48;9.88;;;11.10;99.90;;;;;;5094238;28;20040;-89
2023/01/07 02:48:01;;;;;;;16.52;10.88;;;11.10;99.90;;;;;;5093145;28;20032;-89
2023/01/07 02:50:26;;;;;;;18.08;11.05;;;11.10;99.90;;;;;;5077028;28;20113;-89
2023/01/07 02:52:52;;;;;;;16.15;10.35;;;11.00;99.90;;;;;;5076183;28;20077;-89
2023/01/07 02:55:25;;;;;;;15.45;9.30;;;11.10;99.90;;;;;;5076611;28;20040;-89
2023/01/07 02:57:56;;;;;;;;;;;11.10;99.90;;;;;;5078030;28;20046;-89
2023/01/07 03:01:01;;;;;;;16.05;9.57;;;11.00;99.90;;;;;;5075766;28;20440;-89
2023/01/07 03:03:54;;;;;;;16.23;9.68;;;11.00;99.90;;;;;;5075347;28;20055;-89
2023/01/07 03:06:41;;;;;;;15.05;9.57;;;11.00;99.90;;;;;;5075709;28;20496;-89
2023/01/07 03:09:31;;;;;;;16.38;9.82;;;11.00;99.90;;;;;;5077141;28;20128;-89
2023/01/07 03:12:06;;;;;;;15.65;9.90;;;11.00;99.90;;;;;;5075834;28;20031;-89
2023/01/07 03:14:40;;;;;;;16.20;9.98;;;11.00;99.90;;;;;;5076602;28;20465;-89
2023/01/07 03:17:08;;;;;;;13.55;8.50;;;11.00;99.90;;;;;;5093974;28;20032;-89
2023/01/07 03:19:37;;;;;;;13.95;9.63;;;11.00;99.90;;;;;;5092674;28;20413;-89
2023/01/07 03:22:06;;;;;;;15.65;10.55;;;11.00;99.90;;;;;;5076623;28;20050;-89
2023/01/07 03:24:32;;;;;;;16.15;10.52;;;11.00;99.90;;;;;;5092557;28;20042;-89
2023/01/07 03:27:01;;;;;;;15.13;10.07;;;11.00;99.90;;;;;;5076823;28;20044;-89
2023/01/07 03:29:27;;;;;;;16.40;10.27;;;11.00;99.90;;;;;;5076155;28;20038;-89
2023/01/07 03:31:58;;;;;;;18.33;10.65;;;11.00;99.90;;;;;;5093083;28;20032;-89
2023/01/07 03:34:26;;;;;;;15.95;9.52;;;10.90;99.90;;;;;;5075843;28;20035;-89
2023/01/07 03:36:57;;;;;;;16.13;9.98;;;10.90;99.90;;;;;;5076114;28;20046;-89
2023/01/07 03:39:25;;;;;;;16.17;10.00;;;10.90;99.90;;;;;;5076736;28;20036;-89
2023/01/07 03:44:36;;;;;;;14.73;9.70;;;10.90;99.90;;;;;;5093316;28;20135;-89
2023/01/07 03:47:01;;;;;;;14.98;8.27;;;10.90;99.90;;;;;;5075751;28;20523;-89
2023/01/07 03:49:27;;;;;;;18.70;9.73;;;10.90;99.90;;;;;;5076817;28;20039;-89
2023/01/07 03:51:53;;;;;;;15.13;8.55;;;10.90;99.90;;;;;;5076445;28;20069;-89
2023/01/07 03:54:20;;;;;;;15.02;9.32;;;10.90;99.90;;;;;;5074962;28;20039;-90
2023/01/07 03:56:46;;;;;;;14.15;8.40;;;10.80;99.90;;;;;;5081085;28;20503;-89
2023/01/07 03:59:11;;;;;;;14.23;8.50;;;10.90;99.90;;;;;;5079558;28;20452;-90
2023/01/07 04:01:37;;;;;;;14.57;8.50;;;10.90;99.90;;;;;;5097090;28;20495;-90
2023/01/07 04:04:03;;;;;;;12.50;7.40;;;10.90;99.90;;;;;;5080356;28;20050;-89
2023/01/07 04:06:29;;;;;;;15.45;8.40;;;10.90;99.90;;;;;;5096035;28;20050;-90
2023/01/07 04:08:54;;;;;;;13.02;8.10;;;10.90;99.90;;;;;;5080460;28;20035;-89
2023/01/07 04:11:20;;;;;;;14.65;7.85;;;10.90;99.90;;;;;;5096475;28;20038;-89
2023/01/07 04:13:46;;;;;;;12.18;8.02;;;10.90;99.90;;;;;;5096456;28;20031;-89
2023/01/07 04:16:11;;;;;;;14.50;8.05;;;10.80;99.90;;;;;;5080274;28;20040;-89
2023/01/07 04:18:37;;;;;;;13.95;8.07;;;10.90;99.90;;;;;;5096388;28;20468;-89
2023/01/07 04:21:02;;;;;;;13.32;7.80;;;10.90;99.90;;;;;;5097058;28;20036;-89
2023/01/07 04:23:28;;;;;;;12.93;7.47;;;10.90;99.90;;;;;;5095678;28;20051;-88
2023/01/07 04:25:53;;;;;;;12.32;7.68;;;10.90;99.90;;;;;;5096703;28;20035;-89
2023/01/07 04:28:19;;;;;;;11.57;7.30;;;10.90;99.90;;;;;;5079937;28;20046;-89
2023/01/07 04:30:45;;;;;;;12.07;7.18;;;10.90;99.90;;;;;;5095793;28;20106;-89
2023/01/07 04:33:10;;;;;;;11.70;7.07;;;10.90;99.90;;;;;;5096144;28;20031;-88
2023/01/07 04:35:38;;;;;;;13.30;7.50;;;10.80;99.90;;;;;;5096769;28;20039;-88
2023/01/07 04:38:03;;;;;;;12.80;7.00;;;10.90;99.90;;;;;;5095456;28;20031;-88
2023/01/07 04:40:29;;;;;;;11.45;6.45;;;10.90;99.90;;;;;;5096632;28;20046;-89
2023/01/07 04:42:54;;;;;;;13.85;7.35;;;10.90;99.90;;;;;;5096464;28;20070;-89
2023/01/07 04:45:20;;;;;;;12.57;7.72;;;10.90;99.90;;;;;;5096950;28;20050;-89
2023/01/07 04:47:46;;;;;;;12.82;6.07;;;10.90;99.90;;;;;;5079684;28;20040;-89
2023/01/07 04:50:11;;;;;;;11.40;5.95;;;10.90;99.90;;;;;;5078969;28;20040;-89
2023/01/07 04:52:37;;;;;;;12.55;6.68;;;10.90;99.90;;;;;;5095245;28;20036;-88
2023/01/07 04:55:03;;;;;;;11.50;6.32;;;10.80;99.90;;;;;;5079670;28;20040;-89
2023/01/07 04:57:28;;;;;;;12.02;6.50;;;10.80;99.90;;;;;;5095306;28;20035;-88
2023/01/07 04:59:54;;;;;;;11.98;6.32;;;10.80;99.90;;;;;;5079124;28;20108;-89
2023/01/07 05:02:19;;;;;;;12.48;6.07;;;10.80;99.90;;;;;;5078725;28;20031;-89
2023/01/07 05:04:46;;;;;;;11.13;6.05;;;10.80;99.90;;;;;;5095498;28;20123;-89
2023/01/07 05:07:11;;;;;;;13.82;5.97;;;10.80;99.90;;;;;;5095167;28;20093;-89
2023/01/07 05:09:37;;;;;;;13.50;6.50;;;10.80;99.90;;;;;;5090460;28;20039;-89
2023/01/07 05:12:02;;;;;;;9.75;5.22;;;10.80;99.90;;;;;;5075659;28;20047;-89
2023/01/07 05:14:28;;;;;;;9.60;5.40;;;10.80;99.90;;;;;;5085964;28;20036;-88
2023/01/07 05:16:53;;;;;;;12.93;6.10;;;10.80;99.90;;;;;;5066724;28;20036;-89
2023/01/07 05:19:20;;;;;;;13.73;5.72;;;10.70;99.90;;;;;;5082882;28;20070;-89
2023/01/07 05:21:46;;;;;;;10.38;5.65;;;10.70;99.90;;;;;;5070780;28;20068;-89
2023/01/07 05:24:11;;;;;;;10.75;5.85;;;10.70;99.90;;;;;;5058972;28;20067;-89
2023/01/07 05:26:37;;;;;;;10.63;5.60;;;10.70;99.90;;;;;;5066879;28;20043;-89
2023/01/07 05:29:03;;;;;;;11.07;5.70;;;10.70;99.90;;;;;;5058345;28;20036;-89
2023/01/07 05:31:28;;;;;;;12.55;6.63;;;10.70;99.90;;;;;;5085729;28;20521;-88
2023/01/07 05:33:54;;;;;;;11.13;5.85;;;10.70;99.90;;;;;;5084843;28;20031;-89
2023/01/07 05:36:20;;;;;;;12.57;6.80;;;10.70;99.90;;;;;;5058128;28;20489;-89
2023/01/07 05:38:45;;;;;;;12.25;6.10;;;10.70;99.90;;;;;;5078373;28;20481;-89
2023/01/07 05:41:11;;;;;;;11.23;5.90;;;10.70;99.90;;;;;;5059314;28;20041;-89
2023/01/07 05:43:37;;;;;;;11.43;5.43;;;10.70;99.90;;;;;;5058748;28;20032;-89
2023/01/07 05:46:03;;;;;;;11.27;6.05;;;10.70;99.90;;;;;;5073461;28;20046;-89
2023/01/07 05:48:29;;;;;;;10.23;5.43;;;10.70;99.90;;;;;;5069498;28;20031;-89
2023/01/07 05:50:54;;;;;;;10.05;5.43;;;10.70;99.90;;;;;;5091772;28;20092;-89
2023/01/07 05:53:20;;;;;;;10.68;5.05;;;10.70;99.90;;;;;;5059204;28;20168;-89
2023/01/07 05:55:45;;;;;;;10.98;5.32;;;10.60;99.90;;;;;;5074411;28;20040;-89
2023/01/07 05:58:11;;;;;;;10.20;5.03;;;10.60;99.90;;;;;;5090149;28;20036;-89
2023/01/07 06:00:37;;;;;;;12.27;5.00;;;10.60;99.90;;;;;;5084441;28;20035;-89
2023/01/07 06:03:03;;;;;;;11.40;5.57;;;10.60;99.90;;;;;;5075941;28;20541;-88
2023/01/07 06:05:29;;;;;;;9.50;5.13;;;10.60;99.90;;;;;;5070937;28;20075;-89
2023/01/07 06:07:55;;;;;;;11.23;4.90;;;10.50;99.90;;;;;;5083238;28;20474;-89
2023/01/07 06:10:21;;;;;;;10.32;4.80;;;10.50;99.90;;;;;;5060719;28;20100;-88
2023/01/07 06:12:46;;;;;;;9.77;4.75;;;10.50;99.90;;;;;;5084271;28;20070;-89
2023/01/07 06:15:12;;;;;;;10.25;4.43;;;10.50;99.90;;;;;;5066608;28;20065;-89
2023/01/07 06:17:37;;;;;;;10.25;4.75;;;10.50;99.90;;;;;;5062415;28;20024;-89
2023/01/07 06:20:05;;;;;;;10.35;4.35;;;10.50;99.90;;;;;;5076987;28;20512;-88
2023/01/07 06:22:30;;;;;;;8.85;4.65;;;10.60;99.90;;;;;;5066834;28;20032;-89
2023/01/07 06:24:56;;;;;;;9.60;4.70;;;10.50;99.90;;;;;;5075066;28;20035;-89
2023/01/07 06:27:21;;;;;;;9.93;4.55;;;10.60;99.90;;;;;;5068570;28;20047;-89
2023/01/07 06:29:47;;;;;;;9.07;4.78;;;10.60;99.90;;;;;;5073723;28;20047;-89
2023/01/07 06:32:12;;;;;;;10.40;4.72;;;10.60;99.90;;;;;;5060794;28;20475;-88
2023/01/07 06:34:38;;;;;;;10.90;5.05;;;10.60;99.90;;;;;;5080473;28;20066;-89
2023/01/07 06:37:03;;;;;;;13.70;4.75;;;10.60;99.90;;;;;;5074084;28;20036;-89
2023/01/07 06:39:29;;;;;;;9.85;4.60;;;10.60;99.90;;;;;;5062962;28;20558;-89
2023/01/07 06:41:54;;;;;;;9.13;4.68;;;10.60;99.90;;;;;;5093719;28;20032;-88
2023/01/07 06:44:20;;;;;;;8.98;4.45;;;10.60;99.90;;;;;;5093530;28;20130;-89
2023/01/07 06:46:45;;;;;;;9.57;4.28;;;10.60;99.90;;;;;;5091961;28;20409;-89
2023/01/07 06:49:11;;;;;;;10.18;4.65;;;10.60;99.90;;;;;;5076701;28;20130;-88
2023/01/07 06:51:37;;;;;;;11.10;4.88;;;10.60;99.90;;;;;;5093663;28;20050;-89
2023/01/07 06:54:02;;;;;;;9.98;4.38;;;10.60;99.90;;;;;;5093538;28;20458;-89
2023/01/07 06:56:28;;;;;;;9.75;4.25;;;10.60;99.90;;;;;;5077148;28;20040;-89
2023/01/07 06:58:53;;;;;;;9.43;4.10;;;10.60;99.90;;;;;;5093327;28;20623;-88
2023/01/07 07:01:19;;;;;;;9.45;4.50;;;10.60;99.90;;;;;;5076602;28;20031;-89
2023/01/07 07:03:45;;;;;;;11.10;4.15;;;10.60;99.90;;;;;;5093621;28;20041;-89
2023/01/07 07:06:10;;;;;;;9.80;4.03;;;10.60;99.90;;;;;;5076047;28;20035;-89
2023/01/07 07:08:36;;;;;;;9.75;4.40;;;10.60;99.90;;;;;;5094039;28;20043;-89
2023/01/07 07:11:01;;;;;;;10.30;5.25;;;10.60;99.90;;;;;;5075353;28;20048;-88
2023/01/07 07:13:27;;;;;;;10.07;4.45;;;10.60;99.90;;;;;;5093441;28;20100;-89
2023/01/07 07:15:53;;;;;;;8.25;4.30;;;10.60;99.90;;;;;;5076535;28;20074;-89
2023/01/07 07:18:19;;;;;;;8.93;4.57;;;10.60;99.90;;;;;;5093311;28;20039;-89
2023/01/07 07:20:45;;;;;;;9.85;4.57;;;10.50;99.90;;;;;;5093643;28;20035;-89
2023/01/07 07:23:11;;;;;;;9.70;4.50;;;10.50;99.90;;;;;;5075784;28;20084;-89
2023/01/07 07:25:37;;;;;;;9.82;5.00;;;10.50;99.90;;;;;;5093887;28;20051;-88
2023/01/07 07:28:03;;;;;;;9.80;4.63;;;10.50;99.90;;;;;;5075771;28;20028;-89
2023/01/07 07:30:29;;;;;;;8.38;4.40;;;10.40;99.90;;;;;;5076509;28;20385;-89
2023/01/07 07:32:54;;;;;;;8.95;4.70;;;10.40;99.90;;;;;;5075805;28;20491;-88
2023/01/07 07:35:20;;;;;;;10.35;4.95;;;10.40;99.90;;;;;;5092726;28;20042;-88
2023/01/07 07:37:45;;;;;;;8.93;4.90;;;10.40;99.90;;;;;;5076428;28;20071;-88
2023/01/07 07:40:11;;;;;;;9.80;4.53;;;10.40;99.90;;;;;;5092880;28;20164;-88
2023/01/07 07:42:38;;;;;;;8.52;4.30;;;10.30;99.90;;;;;;5093159;28;20807;-89
2023/01/07 07:45:05;;;;;;;8.00;3.72;;;10.30;99.90;;;;;;5076345;28;20404;-89
2023/01/07 07:47:31;;;;;;;8.90;4.40;;;10.30;99.90;;;;;;5076448;28;20085;-88
2023/01/07 07:49:57;;;;;;;11.43;4.25;;;10.30;99.90;;;;;;5093240;28;20040;-88
2023/01/07 07:52:22;;;;;;;8.13;3.63;;;10.30;99.90;;;;;;5075441;28;20042;-90
2023/01/07 07:54:48;;;;;;;10.15;4.57;;;10.30;99.90;;;;;;5092651;28;20031;-88
2023/01/07 07:57:13;;;;;;;9.52;4.68;;;10.30;99.90;;;;;;5093461;28;20134;-88
2023/01/07 07:59:39;;;;;;;10.02;3.85;;;10.20;99.90;;;;;;5075293;28;20034;-88
2023/01/07 08:02:04;;;;;;;8.25;3.58;;;10.20;99.90;;;;;;5093027;28;20516;-88
2023/01/07 08:04:33;;;;;;;8.15;3.42;;;10.20;99.90;;;;;;5062723;28;20044;-88
2023/01/07 08:06:59;;;;;;;7.55;3.72;;;10.20;99.90;;;;;;5056550;28;20383;-88
2023/01/07 08:09:25;;;;;;;8.57;3.50;;;10.20;99.90;;;;;;5058558;28;20493;-88
2023/01/07 08:11:51;;;;;;;8.43;3.42;;;10.20;99.90;;;;;;5069622;28;20040;-89
2023/01/07 08:14:16;;;;;;;8.13;3.50;;;10.20;99.90;;;;;;5059560;28;20577;-89
2023/01/07 08:16:42;;;;;;;9.88;3.88;;;10.20;99.90;;;;;;5079074;28;20528;-89
2023/01/07 08:19:07;;;;;;;9.07;3.38;;;10.20;99.90;;;;;;5068134;28;20063;-88
2023/01/07 08:21:33;;;;;;;7.63;3.47;;;10.20;99.90;;;;;;5055664;28;20044;-88
2023/01/07 08:23:58;;;;;;;9.70;3.25;;;10.20;99.90;;;;;;5081114;28;20039;-89
2023/01/07 08:26:24;;;;;;;6.35;2.95;;;10.10;99.90;;;;;;5062527;28;20510;-88
2023/01/07 08:28:50;;;;;;;8.20;3.40;;;10.20;99.90;;;;;;5063024;28;20656;-89
2023/01/07 08:31:15;;;;;;;10.23;3.72;;;10.10;99.90;;;;;;5083740;28;20036;-89
2023/01/07 08:33:41;;;;;;;8.55;3.40;;;10.20;99.90;;;;;;5073445;28;20039;-88
2023/01/07 08:36:08;;;;;;;8.60;3.47;;;10.10;99.90;;;;;;5072472;28;20119;-88
2023/01/07 08:38:34;;;;;;;8.45;3.35;;;10.20;99.90;;;;;;5073575;28;20036;-89
2023/01/07 08:40:59;;;;;;;7.55;3.10;;;10.20;99.90;;;;;;5063689;28;20092;-89
2023/01/07 08:43:25;;;;;;;8.38;3.60;;;10.10;99.90;;;;;;5071598;28;20047;-89
2023/01/07 08:45:51;;;;;;;6.88;2.80;;;10.20;99.90;;;;;;5091126;28;20550;-88
2023/01/07 08:48:18;;;;;;;8.52;3.45;;;10.20;99.90;;;;;;5072043;28;20520;-89
2023/01/07 08:50:49;;;;;;;7.75;3.28;;;10.20;99.90;;;;;;5083801;28;20128;-90
2023/01/07 08:53:14;;;;;;;6.90;2.92;;;10.20;99.90;;;;;;5067680;28;20028;-88
2023/01/07 08:55:40;;;;;;;7.32;3.20;;;10.30;99.90;;;;;;5047162;28;20075;-89
2023/01/07 08:58:06;;;;;;;7.32;2.90;;;10.30;99.90;;;;;;5067817;28;20038;-89
2023/01/07 09:00:31;;;;;;;7.53;3.10;;;10.30;99.90;;;;;;5089812;28;20043;-89
2023/01/07 09:02:57;;;;;;;10.00;3.75;;;10.40;99.90;;;;;;5092632;28;20035;-89
2023/01/07 09:05:23;;;;;;;7.50;2.97;;;10.40;99.90;;;;;;5070115;28;20028;-89
2023/01/07 09:07:53;;;;;;;5.90;2.50;;;10.40;99.90;;;;;;5068541;28;20035;-89
2023/01/07 09:10:19;;;;;;;5.82;2.20;;;10.40;99.90;;;;;;5072393;28;20032;-89
2023/01/07 09:12:44;;;;;;;6.80;3.03;;;10.40;99.90;;;;;;5069901;28;20035;-89
2023/01/07 09:15:10;;;;;;;5.90;2.60;;;10.40;99.90;;;;;;5063833;28;20032;-89
2023/01/07 09:17:36;;;;;;;5.53;2.58;;;10.40;99.90;;;;;;5078720;28;20036;-89
2023/01/07 09:20:03;;;;;;;7.18;2.53;;;10.40;99.90;;;;;;5064885;28;20088;-89
2023/01/07 09:22:33;;;;;;;7.05;2.55;;;10.40;99.90;;;;;;5066580;28;20050;-89
2023/01/07 09:24:58;;;;;;;7.72;2.78;;;10.50;99.90;;;;;;5058479;28;20130;-89
2023/01/07 09:27:25;;;;;;;6.95;2.97;;;10.50;99.90;;;;;;5068212;28;20122;-89
2023/01/07 09:29:53;;;;;;;6.30;2.42;;;10.50;99.90;;;;;;5072004;28;20036;-87
2023/01/07 09:32:20;;;;;;;6.80;2.45;;;10.50;99.90;;;;;;5076849;28;20067;-89
2023/01/07 09:34:45;;;;;;;6.35;2.67;;;10.50;99.90;;;;;;5066654;28;20047;-88
2023/01/07 09:37:11;;;;;;;7.25;2.25;;;10.60;99.90;;;;;;5059291;28;20048;-88
2023/01/07 09:39:37;;;;;;;5.60;2.22;;;10.60;99.90;;;;;;5085610;28;20130;-88
2023/01/07 09:42:10;;;;;;;6.90;2.63;;;10.60;99.90;;;;;;5053045;28;20044;-89
2023/01/07 09:44:54;;;;;;;5.45;2.17;;;10.70;99.90;;;;;;5074085;28;20088;-89
2023/01/07 09:47:24;;;;;;;5.55;2.00;;;10.70;99.90;;;;;;5068121;28;20067;-89
2023/01/07 09:49:56;;;;;;;6.45;1.85;;;10.70;99.90;;;;;;5065630;28;20062;-89
2023/01/07 09:52:29;;;;;;;6.13;2.03;;;10.80;99.90;;;;;;5057878;28;20092;-89
2023/01/07 09:55:11;;;;;;;7.80;2.20;;;10.80;99.90;;;;;;5063343;28;20084;-88
2023/01/07 09:57:37;;;;;;;5.78;1.75;;;10.80;99.90;;;;;;5081930;28;20111;-89
2023/01/07 10:00:17;;;;;;;6.90;2.15;;;10.90;99.90;;;;;;5057922;28;20746;-89
2023/01/07 10:02:55;;;;;;;6.07;2.17;;;10.90;99.90;;;;;;5067728;28;20051;-89
2023/01/07 10:05:34;;;;;;;6.07;2.33;;;10.90;99.90;;;;;;5074401;28;20043;-89
2023/01/07 10:08:27;;;;;;;4.75;1.90;;;11.00;99.90;;;;;;5082278;28;20059;-89
2023/01/07 10:11:12;;;;;;;;;;;11.00;99.90;;;;;;5074834;28;20485;-88
2023/01/07 10:13:57;;;;;;;5.38;1.80;;;11.00;99.90;;;;;;5066974;28;19916;-89
2023/01/07 10:16:39;;;;;;;4.05;1.60;;;11.00;99.90;;;;;;5083125;28;20043;-89
2023/01/07 10:19:22;;;;;;;5.27;2.00;;;11.10;99.90;;;;;;5068401;28;20084;-88
2023/01/07 10:22:01;;;;;;;5.80;1.98;;;11.10;99.90;;;;;;5072781;28;20285;-89
2023/01/07 10:24:35;;;;;;;4.85;1.70;;;11.10;99.90;;;;;;5075706;28;20046;-88
2023/01/07 10:27:08;;;;;;;4.53;1.63;;;11.10;99.90;;;;;;5093001;28;20106;-89
2023/01/07 10:29:49;;;;;;;4.18;1.55;;;11.10;99.90;;;;;;5073291;28;20117;-89
2023/01/07 10:32:21;;;;;;;4.30;1.60;;;11.10;99.90;;;;;;5069392;28;20110;-88
2023/01/07 10:34:52;;;;;;;4.05;1.58;;;11.10;99.90;;;;;;5083394;28;20111;-89
2023/01/07 10:37:32;;;;;;;4.75;1.85;;;11.10;99.90;;;;;;5075556;28;20036;-89
2023/01/07 10:40:19;;;;;;;4.90;1.38;;;11.10;99.90;;;;;;5089049;28;21555;-88
2023/01/07 10:42:49;;;;;;;3.67;1.50;;;11.10;99.90;;;;;;5070042;28;20035;-89
2023/01/07 10:45:48;;;;;;;3.83;1.70;;;11.10;99.90;;;;;;5084197;28;20067;-89
2023/01/07 10:48:35;;;;;;;3.47;1.48;;;11.10;99.90;;;;;;5075593;28;20074;-90
2023/01/07 10:51:14;;;;;;;3.95;1.60;;;11.10;99.90;;;;;;5067269;28;20480;-89
2023/01/07 10:53:56;;;;;;;3.95;1.50;;;11.10;99.90;;;;;;5067809;28;20500;-89
2023/01/07 10:56:34;;;;;;;3.40;1.52;;;11.20;99.90;;;;;;5078026;28;20048;-89
2023/01/07 10:59:00;;;;;;;4.57;1.50;;;11.20;99.90;;;;;;5081350;28;20064;-89
2023/01/07 11:01:31;;;;;;;4.78;1.75;;;11.20;99.90;;;;;;5061819;28;20028;-89
2023/01/07 11:03:58;;;;;;;4.25;1.60;;;11.20;99.90;;;;;;5069557;28;20077;-90
2023/01/07 11:06:44;;;;;;;5.00;1.70;;;11.20;99.90;;;;;;5073361;28;20039;-89
2023/01/07 11:09:19;;;;;;;4.72;1.48;;;11.20;99.90;;;;;;5067441;28;20072;-89
2023/01/07 11:11:47;;;;;;;5.15;1.98;;;11.20;99.90;;;;;;5060411;28;20044;-89
2023/01/07 11:14:19;;;;;;;4.97;1.77;;;11.20;99.90;;;;;;5056877;28;20032;-90
2023/01/07 11:16:55;;;;;;;5.00;1.40;;;11.20;99.90;;;;;;5070766;28;20032;-89
2023/01/07 11:19:22;;;;;;;5.15;1.63;;;11.20;99.90;;;;;;5089313;28;20027;-90
2023/01/07 11:21:48;;;;;;;5.30;1.67;;;11.20;99.90;;;;;;5076560;28;20043;-90
2023/01/07 11:24:27;;;;;;;4.40;1.60;;;11.20;99.90;;;;;;5075824;28;20040;-89
2023/01/07 11:27:22;;;;;;;3.65;1.50;;;11.20;99.90;;;;;;5076773;28;20504;-89
2023/01/07 11:30:20;;;;;;;5.65;1.80;;;11.20;99.90;;;;;;5087532;28;20619;-89
2023/01/07 11:32:58;;;;;;;4.38;1.80;;;11.20;99.90;;;;;;5076560;28;20050;-89
2023/01/07 11:35:27;;;;;;;4.85;1.67;;;11.20;99.90;;;;;;5075653;28;20481;-89
2023/01/07 11:37:52;;;;;;;4.90;2.33;;;11.20;99.90;;;;;;5076611;28;20039;-88
2023/01/07 11:40:22;;;;;;;4.15;1.50;;;11.30;99.90;;;;;;5075476;28;20096;-88
2023/01/07 11:42:55;;;;;;;5.60;1.70;;;11.30;99.90;;;;;;5093211;28;20055;-87
2023/01/07 11:45:37;;;;;;;4.20;1.60;;;11.30;99.90;;;;;;5077090;28;20059;-88
2023/01/07 11:48:30;;;;;;;3.00;1.50;;;11.30;99.90;;;;;;5076125;28;20043;-88
2023/01/07 11:51:05;;;;;;;5.25;1.58;;;11.30;99.90;;;;;;5093547;28;20082;-89
2023/01/07 11:53:42;;;;;;;4.53;1.60;;;11.40;99.90;;;;;;5074536;28;20089;-88
2023/01/07 11:56:20;;;;;;;5.07;1.70;;;11.40;99.90;;;;;;5093383;28;20071;-88
2023/01/07 11:58:51;;;;;;;5.15;1.55;;;11.50;99.90;;;;;;5075305;28;20032;-88
2023/01/07 12:01:18;;;;;;;4.38;1.58;;;11.50;99.90;;;;;;5093560;28;20050;-88
2023/01/07 12:03:53;;;;;;;3.05;1.33;;;11.50;99.90;;;;;;5076346;28;20096;-88
2023/01/07 12:06:20;;;;;;;5.53;1.40;;;11.50;99.90;;;;;;5091949;28;20525;-88
2023/01/07 12:08:56;;;;;;;4.03;1.33;;;11.50;99.90;;;;;;5076293;28;20047;-88
2023/01/07 12:11:30;;;;;;;5.20;1.88;;;11.60;99.90;;;;;;5092284;28;20127;-88
2023/01/07 12:14:04;;;;;;;2.80;1.10;;;11.60;99.90;;;;;;5075523;28;20055;-88
2023/01/07 12:16:32;;;;;;;4.15;1.77;;;11.70;99.90;;;;;;5095248;28;20046;-88
2023/01/07 12:19:30;;;;;;;4.25;1.50;;;11.80;99.90;;;;;;5076775;28;20031;-88
2023/01/07 12:22:39;;;;;;;4.90;1.70;;;12.40;99.90;;;;;;5076451;28;20028;-89
2023/01/07 12:25:33;;;;;;;3.60;1.30;;;13.50;99.90;;;;;;4995058;28;20042;-89
2023/01/07 12:28:07;;;;;;;3.97;1.52;;;14.20;99.90;;;;;;4979800;28;20413;-88
2023/01/07 12:30:49;;;;;;;5.95;1.88;;;14.80;99.90;;;;;;4978583;28;20077;-89
2023/01/07 12:33:30;;;;;;;2.60;1.27;;;15.40;96.90;;;;;;4992312;28;20062;-88
2023/01/07 12:35:59;;;;;;;4.95;1.50;;;15.80;97.30;;;;;;4992202;28;20296;-88
2023/01/07 12:38:40;;;;;;;4.70;1.40;;;16.10;91.70;;;;;;4991833;28;20697;-88
2023/01/07 12:41:19;;;;;;;4.45;1.40;;;16.30;91.00;;;;;;4976343;28;20450;-93
2023/01/07 12:43:57;;;;;;;3.75;1.40;;;16.50;87.60;;;;;;4978740;28;20042;-89
2023/01/07 12:46:23;;;;;;;4.78;1.52;;;16.80;87.50;;;;;;4979531;28;20061;-88
2023/01/07 12:49:09;;;;;;;3.17;1.10;;;17.00;84.50;;;;;;4977980;28;20049;-89
2023/01/07 12:51:43;;;;;;;4.88;1.35;;;16.90;80.70;;;;;;4978864;28;20041;-89
2023/01/07 12:54:39;;;;;;;4.10;1.50;;;16.60;79.00;;;;;;4977291;28;20415;-89
2023/01/07 12:57:12;;;;;;;4.45;1.45;;;16.00;79.30;;;;;;4979289;28;20137;-88
2023/01/07 12:59:56;;;;;;;2.85;1.30;;;15.60;81.40;;;;;;5048578;28;20500;-88